ポンペイ国際空港の過去48時間の天気

ポンペイ国際空港 (Pohnpei Island, Pohnpei Int. Airp., Micronesia)

現在時刻: 11/17 03:55 +11 (11/16 16:55 UTC) 以下の時間は現地時間です。

過去48時間のMETAR気象情報
時間 風向 風速(m/s) 視程 気温(℃) 湿度(%) 気圧(hPa) 天気現象
16 15:50 東北東 3 10km以上 32 63 1006
16 14:58 4 10km以上 32 63 1006
16 13:53 東北東 4 10km以上 31 70 1007
16 12:50 東北東 4 10km以上 31 70 1008
16 11:50 4 10km以上 31 70 1009
16 10:51 3 10km以上 29 79 1010
16 09:51 東北東 3 10km以上 28 89 1011
16 08:50 静穏 0 10km以上 27 89 1011
16 07:51 静穏 0 10km以上 26 94 1009
16 06:50 静穏 0 10km以上 25 94 1009
16 05:59 3 10km以上 25 94 1010
16 05:09 静穏 0 10km以上 25 94 1009
15 15:50 北北西 3 10km以上 29 84 1006
15 14:50 北西 4 10km以上 31 75 1006 弱い雨
15 13:51 北東 3 10km以上 31 75 1007
15 12:51 5 10km以上 31 75 1007
15 11:56 4 10km以上 31 75 1008
15 10:50 北西 3 10km以上 31 75 1009
15 09:50 静穏 0 10km以上 31 70 1010
15 08:52 静穏 0 10km以上 28 89 1010
15 07:55 北北東 4 10km以上 26 94 1010 弱いしゅう雨
PTPN 160450Z 07006KT 15SM FEW018 SCT130 BKN300 32/24 A2972
PTPN 160358Z 09007KT 15SM FEW018 SCT130 BKN300 32/24 A2972
PTPN 160253Z 07007KT 15SM FEW018 SCT130 BKN300 31/25 A2974
PTPN 160150Z 06007KT 15SM FEW018 SCT130 BKN300 31/25 A2976
PTPN 160050Z 08007KT 15SM SCT018 BKN130 BKN300 31/25 A2979
PTPN 152351Z 08006KT 15SM SCT018 BKN130 BKN300 29/25 A2981
PTPN 152251Z 07006KT 15SM SCT018 BKN130 OVC300 28/26 A2985
PTPN 152150Z 00000KT 15SM SCT018 BKN130 OVC300 27/25 A2985
PTPN 152051Z 00000KT 15SM SCT018TCU BKN130 OVC300 26/25 A2980 RMK TCU SE
PTPN 151950Z 00000KT 15SM BKN017TCU OVC130 25/24 A2980 RMK TCU ALQDS
PTPN 151859Z 19005KT 15SM BKN017TCU OVC130 25/24 A2981 RMK TCU ALQDS
PTPN 151809Z 00000KT 10SM BKN017TCU OVC120 25/24 A2980 RMK TCU ALQDS FIRST
PTPN 150450Z 33006KT 15SM BKN018TCU BKN130 OVC300 29/26 A2972 RMK TCU ALQDS LAST
PTPN 150350Z 32007KT 15SM -RA BKN018TCU BKN130 OVC300 31/26 A2972 RMK TCU ALQDS
PTPN 150251Z 05006KT 15SM BKN018TCU BKN130 OVC300 31/26 A2973 RMK TCU ALQDS
PTPN 150151Z 09009KT 15SM SCT018TCU BKN130 BKN300 31/26 A2974 RMK TCU SE
PTPN 150056Z 35007KT 15SM SCT018TCU SCT130 BKN300 31/26 A2977 RMK TCU SE
PTPN 142350Z 31006KT 15SM SCT018TCU SCT130 BKN300 31/26 A2980 RMK TCU SE-S
PTPN 142250Z 00000KT 15SM SCT018 SCT130 BKN300 31/25 A2981
PTPN 142152Z 00000KT 15SM SCT018 BKN130 OVC300 28/26 A2981
PTPN 142055Z 03007KT 10SM -SHRA BKN017TCU BKN130 OVC300 26/25 A2981 RMK TCU ALQDS FIRST